createdAt,value
2022-09-02T00:02:22.402Z,7.33
2022-09-02T00:05:08.818Z,5.60
2022-09-02T00:07:55.501Z,7.83
2022-09-02T00:10:43.807Z,5.87
2022-09-02T00:13:30.321Z,6.40
2022-09-02T00:16:17.423Z,5.03
2022-09-02T00:19:04.672Z,5.87
2022-09-02T00:21:52.939Z,6.07
2022-09-02T00:24:40.149Z,6.00
2022-09-02T00:27:26.638Z,6.40
2022-09-02T00:30:13.822Z,6.97
2022-09-02T00:33:00.156Z,9.30
2022-09-02T00:35:46.933Z,5.97
2022-09-02T00:38:35.454Z,6.97
2022-09-02T00:41:25.165Z,7.10
2022-09-02T00:44:15.293Z,6.53
2022-09-02T00:47:03.251Z,8.20
2022-09-02T00:49:53.787Z,6.10
2022-09-02T00:53:08.377Z,8.43
2022-09-02T00:55:54.898Z,6.07
2022-09-02T00:58:43.336Z,6.70
2022-09-02T01:01:30.155Z,5.80
2022-09-02T01:04:17.169Z,9.00
2022-09-02T01:07:04.485Z,6.63
2022-09-02T01:09:51.300Z,7.73
2022-09-02T01:12:38.033Z,7.50
2022-09-02T01:15:25.893Z,6.13
2022-09-02T01:18:18.037Z,7.67
2022-09-02T01:21:04.863Z,8.33
2022-09-02T01:23:54.236Z,9.33
2022-09-02T01:26:40.953Z,10.90
2022-09-02T01:29:28.661Z,8.37
2022-09-02T01:32:14.915Z,8.67
2022-09-02T01:35:01.897Z,6.73
2022-09-02T01:37:55.500Z,7.27
2022-09-02T01:40:43.047Z,7.83
2022-09-02T01:43:29.926Z,5.83
2022-09-02T01:46:16.649Z,11.50
2022-09-02T01:49:04.529Z,6.43
2022-09-02T01:51:54.603Z,7.60
2022-09-02T01:54:44.458Z,6.83
2022-09-02T01:57:31.225Z,6.60
2022-09-02T02:00:18.733Z,7.27
2022-09-02T02:03:05.366Z,7.83
2022-09-02T02:05:52.553Z,6.63
2022-09-02T02:08:40.795Z,6.37
2022-09-02T02:11:27.408Z,7.40
2022-09-02T02:14:17.993Z,6.90
2022-09-02T02:17:07.110Z,9.30
2022-09-02T02:19:53.560Z,5.67
2022-09-02T02:22:40.112Z,6.37
2022-09-02T02:25:27.125Z,7.50
2022-09-02T02:28:14.672Z,6.63
2022-09-02T02:31:02.164Z,6.00
2022-09-02T02:33:49.290Z,7.97
2022-09-02T02:36:37.997Z,6.97
2022-09-02T02:39:24.303Z,6.70
2022-09-02T02:42:13.346Z,8.27
2022-09-02T02:45:01.366Z,6.63
2022-09-02T02:47:48.174Z,8.47
2022-09-02T02:50:35.952Z,6.70
2022-09-02T02:53:22.943Z,7.17
2022-09-02T02:56:09.873Z,10.67
2022-09-02T02:59:01.294Z,7.47
2022-09-02T03:01:48.026Z,6.60
2022-09-02T03:04:35.574Z,10.87
2022-09-02T03:07:22.378Z,8.40
2022-09-02T03:10:10.821Z,8.67
2022-09-02T03:13:00.370Z,7.70
2022-09-02T03:15:47.942Z,8.33
2022-09-02T03:18:35.075Z,6.17
2022-09-02T03:21:22.577Z,6.17
2022-09-02T03:24:11.588Z,7.17
2022-09-02T03:26:58.388Z,5.83
2022-09-02T03:29:45.010Z,6.83
2022-09-02T03:32:32.599Z,6.07
2022-09-02T03:35:21.351Z,6.40
2022-09-02T03:38:09.147Z,7.73
2022-09-02T03:40:55.737Z,6.73
2022-09-02T03:43:44.126Z,8.43
2022-09-02T03:46:31.208Z,8.67
2022-09-02T03:49:17.749Z,6.93
2022-09-02T03:52:04.551Z,6.57
2022-09-02T03:54:51.328Z,5.43
2022-09-02T03:57:38.226Z,7.23
2022-09-02T04:00:29.950Z,8.20
2022-09-02T04:03:20.161Z,7.10
2022-09-02T04:06:11.892Z,9.23
2022-09-02T04:08:59.975Z,8.77
2022-09-02T04:11:46.566Z,9.47
2022-09-02T04:14:33.602Z,5.77
2022-09-02T04:17:20.227Z,8.60
2022-09-02T04:20:09.410Z,7.63
2022-09-02T04:22:56.681Z,6.57
2022-09-02T04:25:44.725Z,6.63
2022-09-02T04:28:32.356Z,6.83
2022-09-02T04:31:21.966Z,7.33
2022-09-02T04:34:10.353Z,5.50
2022-09-02T04:36:56.929Z,8.10
2022-09-02T04:39:43.724Z,6.37
2022-09-02T04:42:31.056Z,7.50
2022-09-02T04:45:17.373Z,5.73
2022-09-02T04:48:04.098Z,9.80
2022-09-02T04:50:50.750Z,6.10
2022-09-02T04:53:40.933Z,8.33
2022-09-02T04:56:29.575Z,5.83
2022-09-02T04:59:17.979Z,7.10
2022-09-02T05:02:12.653Z,6.37
2022-09-02T05:05:00.300Z,5.43
2022-09-02T05:07:49.882Z,7.60
2022-09-02T05:10:40.194Z,6.80
2022-09-02T05:13:26.295Z,6.63
2022-09-02T05:16:16.012Z,5.47
2022-09-02T05:19:06.161Z,6.50
2022-09-02T05:21:59.208Z,5.43
2022-09-02T05:24:51.366Z,6.50
2022-09-02T05:27:39.144Z,4.50
2022-09-02T05:30:27.337Z,7.10
2022-09-02T05:33:15.135Z,6.60
2022-09-02T05:36:04.674Z,6.57
2022-09-02T05:38:51.973Z,6.10
2022-09-02T05:41:38.836Z,7.40
2022-09-02T05:44:27.135Z,5.27
2022-09-02T05:47:14.403Z,8.00
2022-09-02T05:50:03.965Z,7.77
2022-09-02T05:52:55.523Z,7.63
2022-09-02T05:55:43.943Z,4.07
2022-09-02T05:58:32.243Z,5.33
2022-09-02T06:01:19.724Z,9.70
2022-09-02T06:04:07.250Z,6.93
2022-09-02T06:06:54.919Z,5.30
2022-09-02T06:09:44.540Z,5.97
2022-09-02T06:12:31.121Z,5.43
2022-09-02T06:15:18.437Z,7.63
2022-09-02T06:18:04.857Z,5.47
2022-09-02T06:20:52.502Z,5.47
2022-09-02T06:23:39.641Z,5.37
2022-09-02T06:26:28.115Z,4.60
2022-09-02T06:29:15.902Z,5.53
2022-09-02T06:32:03.202Z,4.93
2022-09-02T06:34:49.875Z,5.47
2022-09-02T06:37:36.435Z,5.00
2022-09-02T06:40:23.669Z,5.77
2022-09-02T06:43:10.390Z,4.40
2022-09-02T06:46:33.123Z,6.50
2022-09-02T06:49:23.578Z,5.83
2022-09-02T06:52:13.667Z,5.97
2022-09-02T06:55:01.786Z,5.30
2022-09-02T06:57:48.313Z,4.90
2022-09-02T07:00:36.941Z,6.10
2022-09-02T07:03:42.837Z,5.57
2022-09-02T07:06:36.145Z,6.10
2022-09-02T07:09:31.074Z,4.60
2022-09-02T07:12:22.614Z,6.80
2022-09-02T07:15:16.847Z,4.63
2022-09-02T07:18:04.560Z,3.47
2022-09-02T07:20:56.454Z,5.10
2022-09-02T07:23:43.193Z,3.87
2022-09-02T07:26:30.310Z,3.00
2022-09-02T07:29:17.729Z,4.83
2022-09-02T07:32:06.028Z,3.37
2022-09-02T07:34:52.346Z,3.07
2022-09-02T07:37:39.050Z,6.33
2022-09-02T07:40:28.013Z,4.13
2022-09-02T07:43:14.810Z,4.10
2022-09-02T07:46:03.127Z,6.93
2022-09-02T07:48:50.187Z,2.93
2022-09-02T07:51:40.788Z,4.67
2022-09-02T07:54:28.514Z,2.90
2022-09-02T07:57:16.043Z,3.57
2022-09-02T08:00:05.080Z,3.80
2022-09-02T08:03:00.950Z,3.30
2022-09-02T08:05:53.814Z,3.30
2022-09-02T08:08:41.385Z,2.47
2022-09-02T08:11:28.583Z,2.50
2022-09-02T08:14:24.085Z,2.27
2022-09-02T08:17:11.657Z,1.97
2022-09-02T08:19:58.567Z,2.20
2022-09-02T08:22:48.961Z,2.70
2022-09-02T08:25:43.179Z,3.67
2022-09-02T08:28:31.999Z,4.37
2022-09-02T08:31:18.582Z,1.80
2022-09-02T08:34:05.201Z,2.43
2022-09-02T08:36:54.216Z,4.07
2022-09-02T08:39:43.054Z,2.07
2022-09-02T08:42:32.265Z,4.10
2022-09-02T08:45:28.869Z,2.40
2022-09-02T08:48:20.637Z,2.70
2022-09-02T08:51:18.257Z,3.57
2022-09-02T08:54:19.685Z,3.30
2022-09-02T08:57:06.322Z,3.80
2022-09-02T08:59:56.073Z,2.80
2022-09-02T09:03:19.890Z,2.63
2022-09-02T09:06:14.762Z,2.43
2022-09-02T09:09:29.046Z,1.60
2022-09-02T09:12:36.565Z,4.17
2022-09-02T09:15:41.885Z,7.30
2022-09-02T09:18:40.555Z,2.00
2022-09-02T09:21:29.332Z,2.87
2022-09-02T09:24:30.205Z,1.80
2022-09-02T09:27:21.967Z,2.90
2022-09-02T09:30:14.852Z,1.77
2022-09-02T09:33:02.669Z,2.80
2022-09-02T09:35:54.547Z,3.30
2022-09-02T09:38:41.086Z,2.10
2022-09-02T09:41:29.014Z,1.53
2022-09-02T09:44:38.381Z,2.13
2022-09-02T09:47:26.493Z,3.30
2022-09-02T09:50:17.250Z,1.63
2022-09-02T09:53:25.078Z,1.67
2022-09-02T09:56:14.598Z,1.67
2022-09-02T09:59:01.097Z,1.60
2022-09-02T10:01:52.024Z,2.33
2022-09-02T10:04:43.156Z,1.60
2022-09-02T10:07:45.252Z,2.63
2022-09-02T10:10:33.642Z,2.70
2022-09-02T10:13:28.606Z,1.97
2022-09-02T10:16:18.109Z,2.07
2022-09-02T10:19:10.142Z,1.50
2022-09-02T10:22:04.134Z,2.37
2022-09-02T10:25:09.745Z,1.40
2022-09-02T10:28:37.083Z,2.00
2022-09-02T10:31:23.680Z,1.60
2022-09-02T10:34:34.406Z,2.13
2022-09-02T10:37:25.858Z,1.70
2022-09-02T10:40:15.394Z,1.63
2022-09-02T10:43:07.851Z,1.63
2022-09-02T10:45:59.523Z,1.77
2022-09-02T10:48:52.218Z,5.30
2022-09-02T10:51:57.262Z,1.00
2022-09-02T10:54:49.525Z,1.50
2022-09-02T10:57:47.859Z,1.13
2022-09-02T11:00:40.384Z,1.37
2022-09-02T11:03:38.354Z,1.10
2022-09-02T11:06:40.327Z,1.70
2022-09-02T11:09:40.409Z,0.97
2022-09-02T11:12:34.448Z,1.40
2022-09-02T11:15:31.531Z,3.23
2022-09-02T11:18:35.603Z,2.40
2022-09-02T11:21:49.508Z,5.50
2022-09-02T11:24:56.770Z,1.30
2022-09-02T11:28:15.685Z,1.20
2022-09-02T11:31:29.784Z,1.20
2022-09-02T11:34:34.927Z,2.13
2022-09-02T11:37:39.461Z,1.37
2022-09-02T11:40:38.789Z,1.23
2022-09-02T11:43:44.725Z,1.03
2022-09-02T11:46:37.403Z,1.00
2022-09-02T11:49:48.366Z,1.30
2022-09-02T11:52:53.146Z,25.10
2022-09-02T11:55:43.544Z,1.80
2022-09-02T11:58:42.403Z,1.30
2022-09-02T12:01:47.398Z,1.57
2022-09-02T12:04:59.251Z,1.00
2022-09-02T12:07:48.812Z,1.40
2022-09-02T12:10:45.100Z,2.07
2022-09-02T12:13:41.018Z,0.77
2022-09-02T12:16:30.666Z,1.17
2022-09-02T12:19:27.721Z,3.10
2022-09-02T12:22:17.263Z,1.47
2022-09-02T12:25:05.765Z,1.20
2022-09-02T12:28:25.072Z,1.60
2022-09-02T12:31:38.406Z,2.47
2022-09-02T12:34:24.713Z,2.00
2022-09-02T12:37:49.449Z,2.00
2022-09-02T12:40:55.985Z,1.20
2022-09-02T12:43:44.539Z,1.10
2022-09-02T12:46:36.980Z,1.00
2022-09-02T12:49:40.893Z,1.63
2022-09-02T12:52:42.378Z,2.60
2022-09-02T12:55:31.506Z,1.47
2022-09-02T12:58:22.723Z,1.77
2022-09-02T13:01:24.790Z,1.10
2022-09-02T13:04:28.043Z,1.20
2022-09-02T13:07:46.540Z,1.53
2022-09-02T13:11:07.291Z,2.70
2022-09-02T13:14:23.294Z,4.37
2022-09-02T13:17:35.718Z,1.17
2022-09-02T13:20:55.769Z,1.93
2022-09-02T13:24:11.475Z,1.63
2022-09-02T13:27:28.932Z,1.10
2022-09-02T13:30:38.127Z,1.67
2022-09-02T13:33:26.694Z,1.37
2022-09-02T13:36:26.425Z,1.73
2022-09-02T13:39:18.081Z,1.00
2022-09-02T13:42:18.425Z,1.48
2022-09-02T13:45:18.653Z,1.10
2022-09-02T13:48:32.729Z,1.30
2022-09-02T13:51:19.073Z,1.30
2022-09-02T13:54:22.590Z,0.97
2022-09-02T13:57:13.914Z,1.93
2022-09-02T14:00:00.423Z,1.85
2022-09-02T14:02:57.856Z,2.23
2022-09-02T14:05:47.718Z,1.70
2022-09-02T14:08:34.186Z,1.00
2022-09-02T14:11:21.241Z,1.10
2022-09-02T14:14:13.428Z,1.57
2022-09-02T14:17:21.771Z,1.40
2022-09-02T14:20:09.067Z,1.50
2022-09-02T14:22:57.349Z,1.30
2022-09-02T14:25:51.385Z,1.77
2022-09-02T14:28:37.823Z,2.17
2022-09-02T14:31:30.493Z,1.47
2022-09-02T14:34:37.290Z,1.73
2022-09-02T14:37:31.016Z,1.40
2022-09-02T14:40:19.594Z,1.47
2022-09-02T14:43:14.051Z,1.63
2022-09-02T14:46:07.479Z,2.10
2022-09-02T14:48:59.316Z,1.57
2022-09-02T14:51:48.986Z,1.20
2022-09-02T14:54:35.251Z,4.20
2022-09-02T14:57:33.500Z,1.50
2022-09-02T15:00:21.434Z,2.77
2022-09-02T15:03:07.805Z,1.20
2022-09-02T15:05:54.412Z,2.20
2022-09-02T15:08:40.634Z,1.50
2022-09-02T15:11:27.956Z,1.47
2022-09-02T15:14:14.180Z,1.73
2022-09-02T15:17:00.661Z,2.70
2022-09-02T15:19:47.712Z,1.40
2022-09-02T15:22:33.758Z,2.47
2022-09-02T15:25:20.749Z,1.50
2022-09-02T15:28:07.235Z,1.67
2022-09-02T15:31:00.679Z,1.47
2022-09-02T15:33:51.670Z,2.97
2022-09-02T15:36:38.589Z,1.40
2022-09-02T15:39:25.967Z,3.13
2022-09-02T15:42:12.517Z,2.83
2022-09-02T15:44:58.616Z,1.87
2022-09-02T15:47:45.082Z,3.30
2022-09-02T15:50:32.281Z,1.43
2022-09-02T15:53:20.622Z,1.77
2022-09-02T15:56:28.826Z,1.30
2022-09-02T15:59:17.943Z,2.80
2022-09-02T16:02:04.627Z,2.53
2022-09-02T16:04:51.494Z,1.20
2022-09-02T16:07:37.914Z,1.60
2022-09-02T16:10:24.561Z,1.87
2022-09-02T16:13:10.802Z,2.90
2022-09-02T16:16:02.467Z,2.07
2022-09-02T16:18:53.753Z,1.23
2022-09-02T16:21:41.139Z,1.90
2022-09-02T16:24:27.385Z,1.50
2022-09-02T16:27:13.756Z,1.70
2022-09-02T16:30:00.065Z,1.70
2022-09-02T16:32:47.619Z,1.40
2022-09-02T16:35:34.358Z,2.57
2022-09-02T16:38:20.799Z,3.67
2022-09-02T16:41:07.206Z,2.27
2022-09-02T16:43:56.881Z,1.73
2022-09-02T16:46:45.251Z,1.63
2022-09-02T16:49:31.918Z,1.50
2022-09-02T16:52:18.613Z,1.77
2022-09-02T16:55:05.441Z,1.87
2022-09-02T16:57:51.741Z,2.87
2022-09-02T17:00:41.169Z,3.07
2022-09-02T17:03:27.727Z,1.67
2022-09-02T17:06:15.059Z,1.47
2022-09-02T17:09:01.667Z,2.17
2022-09-02T17:11:47.920Z,2.87
2022-09-02T17:14:34.320Z,1.90
2022-09-02T17:17:20.516Z,3.10
2022-09-02T17:20:07.346Z,3.30
2022-09-02T17:22:53.693Z,3.10
2022-09-02T17:25:39.806Z,2.90
2022-09-02T17:28:27.056Z,2.87
2022-09-02T17:31:28.293Z,2.63
2022-09-02T17:34:15.289Z,2.80
2022-09-02T17:37:02.558Z,1.40
2022-09-02T17:39:49.953Z,1.80
2022-09-02T17:42:36.188Z,1.50
2022-09-02T17:45:22.990Z,1.70
2022-09-02T17:48:34.311Z,1.40
2022-09-02T17:51:16.321Z,2.37
2022-09-02T17:54:09.557Z,1.50
2022-09-02T17:57:25.386Z,1.87
2022-09-02T18:00:14.782Z,2.43
2022-09-02T18:03:42.585Z,2.13
2022-09-02T18:06:36.101Z,3.57
2022-09-02T18:09:23.349Z,2.43
2022-09-02T18:12:12.374Z,2.83
2022-09-02T18:14:59.718Z,2.53
2022-09-02T18:17:49.578Z,5.50
2022-09-02T18:20:40.673Z,1.90
2022-09-02T18:24:00.152Z,1.40
2022-09-02T18:27:11.506Z,4.27
2022-09-02T18:30:08.609Z,3.43
2022-09-02T18:33:06.945Z,2.07
2022-09-02T18:36:02.262Z,2.67
2022-09-02T18:39:18.978Z,1.70
2022-09-02T18:42:37.722Z,1.67
2022-09-02T18:45:31.391Z,1.53
2022-09-02T18:48:21.048Z,1.60
2022-09-02T18:51:15.296Z,3.03
2022-09-02T18:54:09.243Z,2.03
2022-09-02T18:56:58.594Z,2.47
2022-09-02T19:00:09.346Z,2.53
2022-09-02T19:03:05.141Z,3.57
2022-09-02T19:05:51.446Z,2.30
2022-09-02T19:08:38.194Z,2.67
2022-09-02T19:11:25.864Z,2.67
2022-09-02T19:14:28.995Z,2.13
2022-09-02T19:17:17.183Z,1.87
2022-09-02T19:20:07.938Z,6.47
2022-09-02T19:22:58.553Z,2.50
2022-09-02T19:25:45.144Z,2.73
2022-09-02T19:28:31.492Z,4.43
2022-09-02T19:31:21.809Z,2.30
2022-09-02T19:34:08.574Z,2.77
2022-09-02T19:36:55.837Z,2.83
2022-09-02T19:39:42.657Z,2.60
2022-09-02T19:42:29.103Z,1.57
2022-09-02T19:45:16.552Z,3.80
2022-09-02T19:48:07.954Z,2.47
2022-09-02T19:50:55.142Z,2.63
2022-09-02T19:53:42.627Z,2.13
2022-09-02T19:56:29.811Z,3.37
2022-09-02T19:59:17.069Z,1.67
2022-09-02T20:02:04.614Z,1.70
2022-09-02T20:04:51.219Z,3.13
2022-09-02T20:07:37.678Z,2.10
2022-09-02T20:10:28.168Z,2.43
2022-09-02T20:13:16.473Z,2.33
2022-09-02T20:16:05.489Z,2.50
2022-09-02T20:18:53.685Z,2.90
2022-09-02T20:21:46.164Z,2.37
2022-09-02T20:24:34.490Z,1.60
2022-09-02T20:27:26.992Z,1.60
2022-09-02T20:30:16.410Z,2.63
2022-09-02T20:33:16.474Z,2.60
2022-09-02T20:36:23.226Z,2.63
2022-09-02T20:39:34.278Z,2.07
2022-09-02T20:42:26.725Z,1.97
2022-09-02T20:45:22.414Z,2.10
2022-09-02T20:48:27.977Z,2.40
2022-09-02T20:51:30.220Z,2.00
2022-09-02T20:54:39.185Z,5.20
2022-09-02T20:57:31.662Z,2.20
2022-09-02T21:00:20.586Z,2.57
2022-09-02T21:03:12.077Z,2.33
2022-09-02T21:06:02.094Z,2.33
2022-09-02T21:09:00.389Z,1.70
2022-09-02T21:11:54.261Z,2.73
2022-09-02T21:15:04.241Z,2.17
2022-09-02T21:17:56.689Z,4.50
2022-09-02T21:21:03.166Z,2.87
2022-09-02T21:24:08.317Z,2.30
2022-09-02T21:27:05.948Z,3.77
2022-09-02T21:30:20.495Z,2.77
2022-09-02T21:33:10.424Z,3.63
2022-09-02T21:35:59.938Z,3.40
2022-09-02T21:38:46.425Z,2.10
2022-09-02T21:41:45.942Z,1.93
2022-09-02T21:44:38.230Z,2.17
2022-09-02T21:47:40.251Z,2.70
2022-09-02T21:51:07.531Z,3.20
2022-09-02T21:54:24.976Z,3.37
2022-09-02T21:57:29.528Z,2.00
2022-09-02T22:00:17.281Z,2.70
2022-09-02T22:03:21.917Z,1.93
2022-09-02T22:06:30.390Z,1.90
2022-09-02T22:09:25.406Z,1.70
2022-09-02T22:12:14.482Z,2.00
2022-09-02T22:15:11.943Z,2.07
2022-09-02T22:18:15.249Z,2.00
2022-09-02T22:21:09.773Z,2.27
2022-09-02T22:23:57.110Z,2.47
2022-09-02T22:27:09.290Z,1.90
2022-09-02T22:30:11.518Z,2.83
2022-09-02T22:33:08.053Z,3.00
2022-09-02T22:36:07.569Z,3.67
2022-09-02T22:38:56.061Z,3.87
2022-09-02T22:41:53.790Z,3.37
2022-09-02T22:45:25.240Z,2.47
2022-09-02T22:48:39.511Z,2.87
2022-09-02T22:51:55.371Z,4.63
2022-09-02T22:54:42.821Z,2.33
2022-09-02T22:57:32.572Z,2.10
2022-09-02T23:00:22.922Z,2.20
2022-09-02T23:03:20.663Z,2.27
2022-09-02T23:06:26.331Z,2.70
2022-09-02T23:09:14.678Z,2.00
2022-09-02T23:12:25.055Z,2.73
2022-09-02T23:15:29.874Z,2.50
2022-09-02T23:18:36.941Z,2.83
2022-09-02T23:21:45.210Z,2.77
2022-09-02T23:25:01.421Z,2.10
2022-09-02T23:28:01.373Z,1.80
2022-09-02T23:31:05.984Z,1.83
2022-09-02T23:34:10.669Z,2.20
2022-09-02T23:37:26.859Z,2.90
2022-09-02T23:40:37.658Z,2.70
2022-09-02T23:43:23.942Z,2.00
2022-09-02T23:46:38.171Z,3.30
2022-09-02T23:49:31.392Z,2.40
2022-09-02T23:52:26.325Z,3.30
2022-09-02T23:55:24.079Z,2.43
2022-09-02T23:58:31.217Z,2.90
